LEASLEBG

Guest
Details From LEAS - Asturias
To LEBG - Burgos
Flight Number -
Tags generated
Created
Modified
Stats Distance 129 nm / 238 km
Max Altitude 4,800 ft / 1,463 m
Waypoints 3
Social Downloads 0
Likes 0
Share VATSIM

Download

Looking for another format? Having issues loading an existing format? Contact us
Advertisement - Login to hide

Notes

Basic altitude profile: - Ascent Rate: 2500ft/min - Ascent Speed: 250kts - Cruise Altitude: 12500ft - Cruise Speed: 420kts - Descent Rate: 1500ft/min - Descent Speed: 250kts Options: - Use NATs: yes - Use PACOTS: yes - Use low airways: yes - Use high airways: yes

Route

LEAS RATAS LEBG

ID Type Via Altitude Latitude Longitude Leg Dist Tot Dist Heading (true) Name
O LEAS APT - 0 ft / 0 m 43.56350˚ -6.03467˚ - 0 nm - Asturias
RATAS FIX - 4,800 ft / 1,463 m 42.57445˚ -4.03077˚ 106 nm 106 nm 123° / 125° -
O LEBG APT - 0 ft / 0 m 42.35689˚ -3.61422˚ 22 nm 128 nm 125° / 125° Burgos

Altitude Profile

Advertisement - Login to hide

LEAS

Details ICAO LEAS (OVD)
Name Asturias
Region Spain
Timezone Europe/Madrid (UTC+2.0)
Stats Elevation 416 ft / 127 m (AMSL)
Location 43.563496° -6.034670°
Runways 1
Magnetic Variation 1.570° W

METAR

LEAS 260300Z AUTO VRB02KT 1100 R29/P2000 R11/P2000 BR SCT003/// BKN007/// OVC017/// 14/14 Q1013

Decode

TAF

TAF LEAS 260200Z 2603/2703 VRB05KT 8000 SCT010 BKN020 TX18/2615Z TN14/2605Z TEMPO 2612/2618 34010KT TEMPO 2603/2618 3000 RA SHRA BKN010 SCT025TCU TEMPO 2603/2611 1500 BCFG BKN005 TEMPO 2603/2610 0800 BCFG BKN001 PROB40 TEMPO 2603/2610 0350 FG VV001 PROB30 TEMPO 2603/2606 3000 TS BKN010 SCT030CB TEMPO 2621/2703 1500 BCFG BKN005

Decode

Departure Runways

ID Width Length Bearing (true) Bearing (mag) Surface Threshold Offset Overrun Length
11 148 ft / 45 m 7,216 ft / 2,200 m 108.09° 109.66° Asphalt 0 ft / 0 m 164 ft / 50 m
29 148 ft / 45 m 7,216 ft / 2,200 m 288.10° 289.67° Asphalt 0 ft / 0 m 164 ft / 50 m

LEBG

Details ICAO LEBG (RGS)
Name Burgos
Region Spain
Timezone Europe/Madrid (UTC+2.0)
Stats Elevation 2,961 ft / 903 m (AMSL)
Location 42.356895° -3.614221°
Runways 1
Magnetic Variation 0.732° W

METAR

LEBG 260300Z AUTO 04003KT 020V080 9999 NCD 08/08 Q1013

Decode

TAF

Not found

Destination Runways

ID Width Length Bearing (true) Bearing (mag) Surface Threshold Offset Overrun Length
04 148 ft / 45 m 6,423 ft / 1,958 m 43.31° 44.04° Asphalt 0 ft / 0 m 0 ft / 0 m
22 148 ft / 45 m 6,423 ft / 1,958 m 223.32° 224.05° Asphalt 0 ft / 0 m 0 ft / 0 m